createdAt,value
2023-12-29T00:00:47.517Z,23.98
2023-12-29T00:05:52.859Z,22.20
2023-12-29T00:10:57.046Z,22.00
2023-12-29T00:16:00.768Z,25.88
2023-12-29T00:21:07.853Z,24.60
2023-12-29T00:26:11.847Z,21.20
2023-12-29T00:31:17.263Z,21.85
2023-12-29T00:36:23.467Z,21.05
2023-12-29T00:41:27.174Z,19.65
2023-12-29T00:46:30.844Z,19.33
2023-12-29T00:51:41.663Z,19.48
2023-12-29T00:56:50.695Z,20.00
2023-12-29T01:01:54.383Z,21.65
2023-12-29T01:06:59.814Z,18.80
2023-12-29T01:12:03.505Z,20.85
2023-12-29T01:17:07.153Z,20.60
2023-12-29T01:22:13.823Z,20.75
2023-12-29T01:27:17.576Z,20.35
2023-12-29T01:32:21.620Z,19.38
2023-12-29T01:37:26.925Z,20.13
2023-12-29T01:42:30.666Z,20.93
2023-12-29T01:47:34.445Z,20.10
2023-12-29T01:52:40.168Z,19.80
2023-12-29T01:57:44.749Z,20.70
2023-12-29T02:02:49.246Z,20.30
2023-12-29T02:07:54.656Z,18.83
2023-12-29T02:12:58.475Z,20.20
2023-12-29T02:18:08.112Z,21.23
2023-12-29T02:23:13.707Z,20.00
2023-12-29T02:28:27.681Z,25.02
2023-12-29T02:33:37.692Z,24.05
2023-12-29T02:38:42.105Z,24.92
2023-12-29T02:43:47.405Z,21.55
2023-12-29T02:48:51.094Z,19.97
2023-12-29T02:53:54.768Z,25.23
2023-12-29T02:59:00.044Z,19.92
2023-12-29T03:04:03.869Z,19.93
2023-12-29T03:09:07.559Z,22.65
2023-12-29T03:14:13.360Z,24.13
2023-12-29T03:19:17.161Z,19.63
2023-12-29T03:24:20.887Z,19.45
2023-12-29T03:29:26.243Z,23.27
2023-12-29T03:34:30.059Z,22.20
2023-12-29T03:39:33.754Z,19.23
2023-12-29T03:44:40.043Z,18.73
2023-12-29T03:49:43.863Z,19.70
2023-12-29T03:54:47.742Z,18.67
2023-12-29T03:59:53.190Z,19.35
2023-12-29T04:04:57.042Z,21.05
2023-12-29T04:10:00.977Z,19.80
2023-12-29T04:15:07.171Z,20.40
2023-12-29T04:20:11.428Z,19.20
2023-12-29T04:25:15.231Z,22.33
2023-12-29T04:30:20.749Z,24.15
2023-12-29T04:35:24.588Z,20.40
2023-12-29T04:40:28.285Z,22.00
2023-12-29T04:45:33.633Z,20.65
2023-12-29T04:50:37.343Z,21.23
2023-12-29T04:55:41.769Z,23.63
2023-12-29T05:00:47.868Z,22.48
2023-12-29T05:05:51.559Z,23.17
2023-12-29T05:10:55.260Z,23.58
2023-12-29T05:16:00.592Z,23.17
2023-12-29T05:21:04.329Z,23.95
2023-12-29T05:26:08.008Z,25.08
2023-12-29T05:31:13.348Z,26.88
2023-12-29T05:36:17.085Z,28.55
2023-12-29T05:41:21.615Z,23.83
2023-12-29T05:46:27.043Z,24.48
2023-12-29T05:51:30.819Z,22.80
2023-12-29T05:56:34.509Z,24.58
2023-12-29T06:01:39.969Z,24.55
2023-12-29T06:06:44.766Z,21.65
2023-12-29T06:11:48.522Z,25.17
2023-12-29T06:16:54.903Z,27.88
2023-12-29T06:21:58.654Z,21.33
2023-12-29T06:27:02.434Z,23.15
2023-12-29T06:32:08.362Z,26.70
2023-12-29T06:42:15.124Z,23.65
2023-12-29T06:47:20.514Z,25.38
2023-12-29T06:52:24.237Z,25.58
2023-12-29T06:57:27.926Z,22.85
2023-12-29T07:02:33.328Z,21.23
2023-12-29T07:07:37.658Z,25.67
2023-12-29T07:12:42.130Z,23.73
2023-12-29T07:17:47.528Z,28.63
2023-12-29T07:22:51.280Z,27.25
2023-12-29T07:27:55.023Z,24.42
2023-12-29T07:33:00.513Z,21.40
2023-12-29T07:38:04.311Z,20.15
2023-12-29T07:43:08.124Z,27.88
2023-12-29T07:48:13.699Z,21.33
2023-12-29T07:53:17.506Z,22.73
2023-12-29T07:58:21.296Z,24.90
2023-12-29T08:03:26.629Z,30.67
2023-12-29T08:08:30.294Z,24.17
2023-12-29T08:13:33.961Z,26.55
2023-12-29T08:18:39.391Z,23.58
2023-12-29T08:23:43.118Z,23.67
2023-12-29T08:28:47.127Z,22.67
2023-12-29T08:33:52.502Z,22.13
2023-12-29T08:38:56.163Z,20.63
2023-12-29T08:43:59.801Z,23.00
2023-12-29T08:49:05.300Z,22.27
2023-12-29T08:54:08.979Z,20.45
2023-12-29T08:59:12.614Z,22.50
2023-12-29T09:04:18.086Z,19.98
2023-12-29T09:09:21.881Z,20.30
2023-12-29T09:14:25.545Z,20.27
2023-12-29T09:19:36.401Z,20.63
2023-12-29T09:24:44.352Z,18.38
2023-12-29T09:29:48.765Z,21.48
2023-12-29T09:34:54.140Z,23.45
2023-12-29T09:39:57.855Z,21.67
2023-12-29T09:45:07.322Z,20.33
2023-12-29T09:50:13.900Z,20.02
2023-12-29T09:55:18.497Z,19.75
2023-12-29T10:00:23.332Z,19.55
2023-12-29T10:05:28.719Z,24.67
2023-12-29T10:10:33.594Z,20.52
2023-12-29T10:15:44.131Z,28.45
2023-12-29T10:20:56.416Z,24.73
2023-12-29T10:26:00.405Z,25.75
2023-12-29T10:31:06.096Z,26.73
2023-12-29T10:36:11.429Z,25.98
2023-12-29T10:41:16.711Z,27.53
2023-12-29T10:46:20.446Z,25.67
2023-12-29T10:51:29.451Z,25.00
2023-12-29T10:56:33.355Z,26.92
2023-12-29T11:01:38.477Z,29.20
2023-12-29T11:06:47.314Z,26.83
2023-12-29T11:11:51.216Z,26.38
2023-12-29T11:16:57.066Z,29.25
2023-12-29T11:27:08.748Z,28.60
2023-12-29T11:32:18.173Z,30.63
2023-12-29T11:37:31.673Z,29.05
2023-12-29T11:42:40.464Z,29.35
2023-12-29T11:47:44.172Z,27.85
2023-12-29T11:52:49.834Z,26.15
2023-12-29T11:57:53.589Z,29.43
2023-12-29T12:02:57.395Z,23.20
2023-12-29T12:08:02.715Z,26.58
2023-12-29T12:13:06.979Z,22.73
2023-12-29T12:18:13.634Z,20.05
2023-12-29T12:23:20.089Z,21.08
2023-12-29T12:28:23.849Z,20.67
2023-12-29T12:33:27.724Z,20.88
2023-12-29T12:38:33.064Z,21.88
2023-12-29T12:43:40.483Z,25.80
2023-12-29T12:48:46.357Z,27.75
2023-12-29T12:58:55.014Z,26.75
2023-12-29T13:04:00.972Z,26.25
2023-12-29T13:14:10.329Z,23.90
2023-12-29T13:19:21.567Z,26.88
2023-12-29T13:24:27.728Z,22.02
2023-12-29T13:29:32.354Z,11.93
2023-12-29T13:34:42.084Z,7.35
2023-12-29T13:39:55.110Z,4.00
2023-12-29T13:45:00.876Z,2.90
2023-12-29T13:50:05.069Z,0.60
2023-12-29T13:55:10.905Z,0.40
2023-12-29T14:05:30.118Z,0.28
2023-12-29T14:10:36.308Z,0.22
2023-12-29T14:15:41.494Z,0.30
2023-12-29T14:20:45.201Z,0.57
2023-12-29T14:25:50.723Z,0.35
2023-12-29T14:31:04.197Z,0.10
2023-12-29T14:36:08.354Z,0.13
2023-12-29T14:41:13.616Z,0.20
2023-12-29T14:46:17.416Z,0.10
2023-12-29T14:51:21.156Z,0.30
2023-12-29T14:56:26.519Z,0.20
2023-12-29T15:01:30.283Z,0.10
2023-12-29T15:06:34.014Z,0.20
2023-12-29T15:11:39.376Z,0.20
2023-12-29T15:16:43.015Z,0.33
2023-12-29T15:21:46.696Z,0.77
2023-12-29T15:26:52.279Z,0.85
2023-12-29T15:31:56.091Z,1.10
2023-12-29T15:36:59.864Z,0.90
2023-12-29T15:42:05.497Z,1.00
2023-12-29T15:47:09.121Z,1.35
2023-12-29T15:52:13.220Z,0.95
2023-12-29T15:57:19.875Z,1.10
2023-12-29T16:02:23.561Z,1.20
2023-12-29T16:07:27.246Z,1.60
2023-12-29T16:12:32.552Z,1.85
2023-12-29T16:17:37.390Z,2.27
2023-12-29T16:22:41.139Z,1.80
2023-12-29T16:27:46.707Z,2.00
2023-12-29T16:32:50.556Z,2.22
2023-12-29T16:37:54.308Z,2.08
2023-12-29T16:42:59.903Z,2.30
2023-12-29T16:48:03.821Z,2.40
2023-12-29T16:53:08.397Z,2.50
2023-12-29T16:58:13.859Z,2.35
2023-12-29T17:03:17.734Z,2.35
2023-12-29T17:08:23.625Z,2.40
2023-12-29T17:13:28.999Z,2.70
2023-12-29T17:18:32.908Z,2.30
2023-12-29T17:23:37.208Z,2.38
2023-12-29T17:28:42.656Z,2.75
2023-12-29T17:33:46.466Z,2.63
2023-12-29T17:38:50.200Z,2.67
2023-12-29T17:43:55.485Z,2.50
2023-12-29T17:48:59.296Z,2.57
2023-12-29T17:54:03.709Z,2.38
2023-12-29T17:59:09.956Z,2.10
2023-12-29T18:04:13.746Z,2.53
2023-12-29T18:09:17.427Z,2.30
2023-12-29T18:14:22.794Z,2.88
2023-12-29T18:19:26.521Z,2.15
2023-12-29T18:24:30.259Z,2.30
2023-12-29T18:29:35.624Z,2.47
2023-12-29T18:34:40.145Z,1.90
2023-12-29T18:39:44.192Z,2.33
2023-12-29T18:44:49.929Z,2.30
2023-12-29T18:49:53.912Z,2.33
2023-12-29T18:54:57.690Z,2.50
2023-12-29T19:00:02.989Z,2.10
2023-12-29T19:05:07.462Z,2.38
2023-12-29T19:10:11.466Z,2.15
2023-12-29T19:15:17.891Z,2.33
2023-12-29T19:20:21.616Z,2.80
2023-12-29T19:25:26.034Z,2.28
2023-12-29T19:30:31.349Z,2.83
2023-12-29T19:35:34.999Z,2.50
2023-12-29T19:40:38.714Z,2.50
2023-12-29T19:45:44.198Z,2.60
2023-12-29T19:50:47.903Z,2.60
2023-12-29T19:55:51.592Z,2.30
2023-12-29T20:00:57.299Z,2.42
2023-12-29T20:06:01.172Z,2.60
2023-12-29T20:11:05.117Z,2.90
2023-12-29T20:16:10.719Z,2.75
2023-12-29T20:21:22.696Z,2.05
2023-12-29T20:26:28.151Z,2.03
2023-12-29T20:31:34.000Z,2.15
2023-12-29T20:36:38.392Z,2.47
2023-12-29T20:41:42.048Z,2.40
2023-12-29T20:46:47.445Z,2.60
2023-12-29T20:51:51.103Z,2.35
2023-12-29T20:56:54.752Z,2.13
2023-12-29T21:02:00.491Z,2.22
2023-12-29T21:12:08.066Z,2.60
2023-12-29T21:17:14.924Z,2.58
2023-12-29T21:22:18.624Z,1.80
2023-12-29T21:27:22.262Z,1.75
2023-12-29T21:32:27.694Z,1.92
2023-12-29T21:37:31.446Z,1.80
2023-12-29T21:42:36.151Z,1.83
2023-12-29T21:47:42.503Z,1.90
2023-12-29T21:52:46.444Z,2.03
2023-12-29T21:57:50.889Z,2.28
2023-12-29T22:02:56.215Z,2.60
2023-12-29T22:08:00.568Z,2.50
2023-12-29T22:13:04.637Z,1.75
2023-12-29T22:18:10.338Z,2.20
2023-12-29T22:23:14.019Z,1.58
2023-12-29T22:28:17.762Z,1.30
2023-12-29T22:33:23.110Z,0.77
2023-12-29T22:38:26.849Z,0.30
2023-12-29T22:43:30.629Z,0.40
2023-12-29T22:48:36.363Z,0.50
2023-12-29T22:53:40.057Z,0.50
2023-12-29T22:58:43.730Z,0.40
2023-12-29T23:03:49.553Z,0.45
2023-12-29T23:08:53.274Z,0.57
2023-12-29T23:13:56.947Z,0.30
2023-12-29T23:19:02.353Z,0.30
2023-12-29T23:24:06.657Z,0.20
2023-12-29T23:29:10.326Z,0.50
2023-12-29T23:34:16.572Z,0.30
2023-12-29T23:39:20.311Z,0.32
2023-12-29T23:44:23.968Z,0.30
2023-12-29T23:49:29.718Z,0.10
2023-12-29T23:54:33.441Z,0.35
2023-12-29T23:59:37.133Z,0.20
